Blandville, West Virginia
Current Conditions -  °F | °C
As of 4:53 PM on Friday 19 Dec 2014 (Local Time) from KCKB Reporting Station
Overcast Overcast  
Wind Chill: 30°   Ceiling: 2100
Heat Index: 30°   Visibility: 10mi
Dew Point: 22°   Wind: 3mph
Humidity: 72%   Direction: 300°WNW
Pressure: 30.22"   Gusts: NA
Location:  39.26°N, 80.71°W
Report Text: KCKB 192153Z 30003KT 10SM OVC021 M01/M06 A3022 RMK AO2 SLP242 T10111056
Loading
Personal Weather Stations






























Interactive Weather Map New forecast layout! Learn more

10-Day Weather Forecast

Advertisements
Track Severe Weather on mobile